Time;durP1;ratioP1;P1;durP2;ratioP2;P2;SDS_P1;SDS_P2;PMS_P1;PMS_P2;Temp;Humidity;BMP_temperature;BMP_pressure;BME280_temperature;BME280_humidity;BME280_pressure;Samples;Min_cycle;Max_cycle;Signal;HPM_P1;HPM_P2
2022/03/03 00:00:06;;;;;;;53.50;31.23;;;;;;;;;;5071516;28;20195;-53
2022/03/03 00:02:38;;;;;;;39.70;28.20;;;2.20;90.70;;;;;;5071858;28;20226;-53
2022/03/03 00:05:05;;;;;;;41.05;28.55;;;2.50;91.10;;;;;;5072110;28;20210;-52
2022/03/03 00:07:32;;;;;;;44.15;29.20;;;;;;;;;;5071919;28;20199;-53
2022/03/03 00:09:59;;;;;;;48.67;30.95;;;;;;;;;;5071549;28;20196;-53
2022/03/03 00:12:26;;;;;;;49.72;31.30;;;;;;;;;;5071929;28;20226;-52
2022/03/03 00:14:55;;;;;;;49.83;29.15;;;;;;;;;;5071880;28;20268;-52
2022/03/03 00:17:21;;;;;;;56.35;32.78;;;2.50;91.30;;;;;;5071873;28;20235;-52
2022/03/03 00:19:48;;;;;;;50.35;31.27;;;;;;;;;;5071348;28;20187;-53
2022/03/03 00:22:16;;;;;;;49.15;30.65;;;2.60;91.60;;;;;;5071619;28;20215;-53
2022/03/03 00:24:42;;;;;;;48.25;30.77;;;2.30;91.60;;;;;;5071794;28;20219;-53
2022/03/03 00:27:09;;;;;;;52.67;28.88;;;2.40;91.60;;;;;;5071589;28;20287;-53
2022/03/03 00:29:36;;;;;;;45.53;31.27;;;2.30;91.60;;;;;;5071391;28;20234;-53
2022/03/03 00:32:04;;;;;;;46.17;29.98;;;2.50;91.80;;;;;;5072008;28;20219;-54
2022/03/03 00:34:31;;;;;;;46.60;30.92;;;2.60;92.10;;;;;;5071932;28;20621;-52
2022/03/03 00:36:58;;;;;;;43.63;29.63;;;2.40;92.00;;;;;;5071614;28;20209;-53
2022/03/03 00:39:24;;;;;;;46.33;31.85;;;2.30;92.00;;;;;;5071217;28;20203;-52
2022/03/03 00:41:51;;;;;;;51.83;28.73;;;2.20;92.10;;;;;;5051601;28;20220;-52
2022/03/03 00:44:18;;;;;;;47.95;29.58;;;2.20;92.20;;;;;;5051599;28;20187;-53
2022/03/03 00:46:45;;;;;;;51.38;31.13;;;;;;;;;;5051435;28;20664;-53
2022/03/03 00:49:13;;;;;;;54.40;29.88;;;2.30;92.60;;;;;;5050887;28;20275;-53
2022/03/03 00:51:40;;;;;;;49.38;30.27;;;;;;;;;;5051294;28;20730;-53
2022/03/03 00:54:07;;;;;;;53.47;30.92;;;;;;;;;;5051402;28;20219;-53
2022/03/03 00:56:34;;;;;;;57.17;33.13;;;2.10;93.00;;;;;;5050022;28;20206;-52
2022/03/03 00:59:00;;;;;;;43.55;28.33;;;2.10;93.10;;;;;;5050947;28;20230;-54
2022/03/03 01:01:27;;;;;;;46.65;31.95;;;1.90;92.90;;;;;;5051379;28;20219;-53
2022/03/03 01:03:53;;;;;;;49.47;28.23;;;2.20;93.00;;;;;;5055338;28;20200;-53
2022/03/03 01:06:21;;;;;;;48.00;29.90;;;2.20;92.90;;;;;;5055240;28;20196;-54
2022/03/03 01:08:48;;;;;;;49.60;31.40;;;2.40;93.00;;;;;;5055140;28;20200;-54
2022/03/03 01:11:15;;;;;;;54.97;31.40;;;2.50;92.90;;;;;;5055239;28;20216;-54
2022/03/03 01:13:41;;;;;;;48.58;29.58;;;2.60;93.00;;;;;;5055123;28;20200;-52
2022/03/03 01:16:08;;;;;;;43.83;28.52;;;;;;;;;;5063225;28;20233;-53
2022/03/03 01:18:35;;;;;;;51.70;31.50;;;2.40;92.90;;;;;;5074743;28;20203;-54
2022/03/03 01:21:01;;;;;;;52.13;32.78;;;2.40;92.80;;;;;;5074994;28;20826;-54
2022/03/03 01:23:29;;;;;;;52.85;29.85;;;2.40;92.80;;;;;;5075026;28;20195;-52
2022/03/03 01:25:56;;;;;;;43.17;28.98;;;2.40;92.90;;;;;;5074952;28;20660;-53
2022/03/03 01:28:23;;;;;;;39.50;29.90;;;2.30;93.00;;;;;;5074684;28;20214;-52
2022/03/03 01:30:49;;;;;;;45.03;29.27;;;2.30;93.10;;;;;;5074695;28;20191;-54
2022/03/03 01:33:16;;;;;;;43.63;28.92;;;2.50;93.30;;;;;;5073415;28;20232;-54
2022/03/03 01:35:42;;;;;;;43.65;28.73;;;2.30;93.30;;;;;;5073263;28;20223;-53
2022/03/03 01:38:09;;;;;;;52.08;31.65;;;;;;;;;;5074703;28;20667;-53
2022/03/03 01:40:38;;;;;;;51.50;30.95;;;2.30;93.40;;;;;;5074156;28;20195;-53
2022/03/03 01:43:05;;;;;;;48.22;29.88;;;;;;;;;;5074596;28;20219;-52
2022/03/03 01:45:32;;;;;;;44.20;30.17;;;2.20;93.40;;;;;;5074591;28;20202;-53
2022/03/03 01:47:59;;;;;;;53.58;32.53;;;;;;;;;;5073457;28;20213;-53
2022/03/03 01:50:25;;;;;;;43.40;29.42;;;2.40;93.90;;;;;;5074216;28;20647;-53
2022/03/03 01:52:52;;;;;;;48.72;30.45;;;2.30;93.90;;;;;;5074494;28;20211;-53
2022/03/03 01:55:19;;;;;;;46.33;28.60;;;2.30;94.40;;;;;;5074457;28;20238;-53
2022/03/03 01:57:49;;;;;;;49.85;30.33;;;;;;;;;;5074341;28;20195;-52
2022/03/03 02:00:16;;;;;;;43.40;29.13;;;;;;;;;;5073815;28;20207;-53
2022/03/03 02:02:43;;;;;;;44.72;30.70;;;2.20;94.80;;;;;;5074211;28;20729;-51
2022/03/03 02:05:10;;;;;;;45.80;30.85;;;2.00;94.70;;;;;;5074340;28;20194;-51
2022/03/03 02:07:36;;;;;;;63.10;33.92;;;2.10;94.80;;;;;;5074043;28;20205;-51
2022/03/03 02:10:05;;;;;;;56.08;35.25;;;2.30;94.90;;;;;;5073888;28;20234;-52
2022/03/03 02:12:32;;;;;;;57.75;34.25;;;2.00;94.90;;;;;;5074082;28;20215;-52
2022/03/03 02:15:00;;;;;;;47.15;33.38;;;2.20;94.70;;;;;;5074163;28;20253;-53
2022/03/03 02:17:26;;;;;;;47.67;32.83;;;2.30;94.50;;;;;;5074197;28;20207;-52
2022/03/03 02:19:53;;;;;;;43.22;30.08;;;2.30;94.20;;;;;;5073868;28;20202;-50
2022/03/03 02:22:21;;;;;;;41.97;29.05;;;2.40;94.10;;;;;;5073890;28;20215;-52
2022/03/03 02:24:48;;;;;;;45.65;28.85;;;2.70;94.10;;;;;;5073907;28;20199;-52
2022/03/03 02:27:15;;;;;;;41.92;28.67;;;;;;;;;;5073791;28;20195;-52
2022/03/03 02:29:42;;;;;;;41.63;29.30;;;;;;;;;;5073432;28;20187;-49
2022/03/03 02:32:09;;;;;;;42.03;27.15;;;;;;;;;;5073846;28;20211;-52
2022/03/03 02:34:36;;;;;;;39.42;28.13;;;2.70;93.30;;;;;;5072148;28;20310;-51
2022/03/03 02:37:03;;;;;;;36.35;27.58;;;2.60;93.10;;;;;;5073607;28;20556;-52
2022/03/03 02:39:32;;;;;;;40.40;27.80;;;;;;;;;;5072969;28;20249;-52
2022/03/03 02:41:58;;;;;;;35.97;23.98;;;2.60;92.70;;;;;;5073452;28;20222;-52
2022/03/03 02:44:25;;;;;;;40.47;23.83;;;2.60;92.50;;;;;;5073468;28;20199;-51
2022/03/03 02:46:51;;;;;;;32.60;23.70;;;2.60;92.40;;;;;;5073452;28;20206;-51
2022/03/03 02:49:18;;;;;;;38.22;25.08;;;;;;;;;;5073129;28;20313;-50
2022/03/03 02:51:45;;;;;;;34.97;22.40;;;2.60;92.20;;;;;;5073331;28;20750;-52
2022/03/03 02:54:11;;;;;;;36.42;23.65;;;2.60;92.10;;;;;;5073327;28;20196;-52
2022/03/03 02:59:20;;;;;;;35.50;23.35;;;2.70;92.10;;;;;;5072803;28;20227;-53
2022/03/03 03:01:47;;;;;;;31.08;22.60;;;2.50;91.80;;;;;;5073205;28;20306;-52
2022/03/03 03:04:14;;;;;;;35.97;24.48;;;;;;;;;;5073229;28;20290;-52
2022/03/03 03:06:41;;;;;;;39.72;24.40;;;;;;;;;;5073317;28;20199;-52
2022/03/03 03:09:08;;;;;;;33.60;24.10;;;2.50;91.80;;;;;;5072659;28;20198;-52
2022/03/03 03:11:34;;;;;;;37.55;23.30;;;2.60;91.80;;;;;;5072842;28;20226;-54
2022/03/03 03:14:03;;;;;;;35.28;24.15;;;2.50;91.70;;;;;;5073002;28;20191;-52
2022/03/03 03:16:29;;;;;;;32.95;23.73;;;2.70;91.80;;;;;;5072684;28;20330;-52
2022/03/03 03:18:56;;;;;;;31.80;22.55;;;2.40;91.70;;;;;;5072532;28;20256;-53
2022/03/03 03:21:23;;;;;;;32.53;23.02;;;2.50;91.90;;;;;;5071704;28;20219;-53
2022/03/03 03:23:50;;;;;;;32.95;22.17;;;;;;;;;;5072341;28;20191;-51
2022/03/03 03:26:17;;;;;;;36.97;23.33;;;2.10;92.10;;;;;;5072128;28;20187;-52
2022/03/03 03:28:44;;;;;;;32.28;21.38;;;;;;;;;;5072174;28;20207;-52
2022/03/03 03:31:11;;;;;;;30.60;22.50;;;2.40;91.90;;;;;;5071085;28;20206;-51
2022/03/03 03:33:38;;;;;;;39.35;23.27;;;;;;;;;;5072670;28;20194;-53
2022/03/03 03:36:05;;;;;;;28.17;19.95;;;1.90;91.70;;;;;;5072282;28;20667;-52
2022/03/03 03:38:32;;;;;;;33.05;21.83;;;;;;;;;;5072305;28;20188;-52
2022/03/03 03:40:59;;;;;;;32.25;21.38;;;;;;;;;;5072243;28;20200;-53
2022/03/03 03:43:26;;;;;;;30.48;20.25;;;2.10;91.80;;;;;;5072500;28;20203;-52
2022/03/03 03:45:53;;;;;;;28.48;19.92;;;2.00;91.90;;;;;;5072461;28;20191;-52
2022/03/03 03:48:21;;;;;;;33.60;20.58;;;2.00;91.70;;;;;;5072129;28;20279;-51
2022/03/03 03:50:47;;;;;;;29.90;20.00;;;2.20;91.90;;;;;;5072057;28;20208;-51
2022/03/03 03:53:14;;;;;;;34.03;20.00;;;2.00;91.80;;;;;;5072061;28;20585;-52
2022/03/03 03:55:41;;;;;;;31.85;20.88;;;1.90;91.80;;;;;;5072092;28;20225;-52
2022/03/03 03:58:08;;;;;;;32.55;21.27;;;2.00;91.90;;;;;;5072001;28;20195;-53
2022/03/03 04:00:34;;;;;;;39.50;22.35;;;2.00;92.00;;;;;;5071760;28;20223;-52
2022/03/03 04:03:01;;;;;;;30.55;20.73;;;;;;;;;;5071712;28;20226;-52
2022/03/03 04:05:29;;;;;;;37.85;23.67;;;2.00;92.30;;;;;;5072211;28;20741;-51
2022/03/03 04:07:56;;;;;;;35.92;21.38;;;;;;;;;;5072079;28;20195;-51
2022/03/03 04:10:23;;;;;;;36.55;22.42;;;;;;;;;;5071476;28;20198;-52
2022/03/03 04:12:50;;;;;;;42.70;20.35;;;1.80;92.30;;;;;;5071816;28;20340;-52
2022/03/03 04:15:17;;;;;;;42.58;23.27;;;1.60;92.40;;;;;;5071749;28;20219;-52
2022/03/03 04:17:43;;;;;;;32.30;21.27;;;1.60;92.60;;;;;;5072077;28;20652;-52
2022/03/03 04:20:11;;;;;;;39.15;21.25;;;1.80;92.80;;;;;;5072042;28;20199;-52
2022/03/03 04:22:40;;;;;;;32.80;25.95;;;;;;;;;;5071986;28;20234;-52
2022/03/03 04:25:09;;;;;;;31.33;22.70;;;1.60;92.80;;;;;;5071932;28;20237;-52
2022/03/03 04:27:35;;;;;;;32.22;20.65;;;1.80;92.80;;;;;;5071905;28;20245;-53
2022/03/03 04:30:02;;;;;;;33.42;21.73;;;1.50;92.90;;;;;;5071367;28;20210;-52
2022/03/03 04:32:29;;;;;;;32.20;19.98;;;1.70;93.20;;;;;;5071740;28;20207;-52
2022/03/03 04:34:56;;;;;;;29.52;20.17;;;1.50;93.40;;;;;;5071601;28;20237;-52
2022/03/03 04:37:23;;;;;;;36.33;23.67;;;;;;;;;;5071368;28;20321;-51
2022/03/03 04:39:51;;;;;;;30.05;21.55;;;1.60;93.50;;;;;;5071279;28;20197;-51
2022/03/03 04:42:17;;;;;;;35.22;21.30;;;1.60;93.70;;;;;;5071450;28;20230;-52
2022/03/03 04:44:44;;;;;;;33.38;21.63;;;1.60;93.60;;;;;;5069952;28;20675;-51
2022/03/03 04:47:10;;;;;;;29.58;19.95;;;1.50;93.70;;;;;;5071458;28;20187;-53
2022/03/03 04:49:38;;;;;;;31.60;21.15;;;;;;;;;;5071091;28;20201;-52
2022/03/03 04:52:04;;;;;;;28.10;19.55;;;1.40;94.60;;;;;;5071364;28;20219;-53
2022/03/03 04:54:32;;;;;;;29.45;20.17;;;;;;;;;;5071720;28;20202;-50
2022/03/03 04:56:59;;;;;;;36.67;21.10;;;1.30;95.40;;;;;;5071588;28;20325;-52
2022/03/03 04:59:26;;;;;;;28.48;20.02;;;1.00;95.70;;;;;;5070891;28;20592;-52
2022/03/03 05:01:53;;;;;;;30.13;22.05;;;1.20;96.00;;;;;;5090272;22;20239;-45
2022/03/03 05:04:20;;;;;;;31.20;20.35;;;1.30;96.00;;;;;;5067042;28;20218;-44
2022/03/03 05:06:47;;;;;;;28.40;19.58;;;1.10;96.30;;;;;;5051794;28;20672;-44
2022/03/03 05:09:13;;;;;;;25.98;18.50;;;0.90;96.30;;;;;;5051679;28;20215;-44
2022/03/03 05:11:40;;;;;;;32.10;20.38;;;1.00;96.20;;;;;;5051734;28;20235;-44
2022/03/03 05:14:08;;;;;;;35.58;18.95;;;0.90;95.80;;;;;;5051625;28;20660;-44
2022/03/03 05:16:35;;;;;;;29.70;20.25;;;1.00;96.30;;;;;;5052019;28;20235;-44
2022/03/03 05:19:02;;;;;;;28.95;19.20;;;1.10;96.40;;;;;;5053510;28;20825;-44
2022/03/03 05:21:28;;;;;;;28.48;18.23;;;1.10;96.40;;;;;;5053318;28;20196;-45
2022/03/03 05:23:55;;;;;;;27.38;18.67;;;1.10;96.30;;;;;;5052057;28;20202;-45
2022/03/03 05:26:21;;;;;;;30.10;19.17;;;1.00;96.20;;;;;;5051561;28;20195;-45
2022/03/03 05:28:48;;;;;;;28.15;19.50;;;;;;;;;;5051384;28;20203;-45
2022/03/03 05:31:16;;;;;;;30.75;21.00;;;0.80;96.50;;;;;;5051433;28;20195;-43
2022/03/03 05:33:43;;;;;;;30.48;20.27;;;0.90;96.80;;;;;;5033394;28;20249;-44
2022/03/03 05:36:11;;;;;;;24.95;18.35;;;1.00;96.60;;;;;;5051305;28;20221;-43
2022/03/03 05:38:38;;;;;;;30.75;19.52;;;0.80;96.60;;;;;;5051003;28;20202;-44
2022/03/03 05:41:06;;;;;;;26.65;18.33;;;1.00;96.70;;;;;;5051178;28;20701;-45
2022/03/03 05:43:35;;;;;;;27.90;20.02;;;1.00;96.90;;;;;;5051332;28;20219;-45
2022/03/03 05:46:02;;;;;;;29.95;21.20;;;0.80;96.80;;;;;;5051600;28;20250;-45
2022/03/03 05:48:30;;;;;;;34.00;20.70;;;0.90;97.10;;;;;;5052739;28;20192;-44
2022/03/03 05:50:57;;;;;;;34.80;20.00;;;0.70;97.10;;;;;;5054747;28;20651;-44
2022/03/03 05:53:25;;;;;;;28.15;18.15;;;1.00;97.40;;;;;;5054753;28;20212;-45
2022/03/03 05:55:53;;;;;;;31.70;20.85;;;0.70;97.40;;;;;;5054676;28;20219;-44
2022/03/03 05:58:23;;;;;;;30.85;19.90;;;;;;;;;;5036709;28;20620;-44
2022/03/03 06:00:54;;;;;;;32.20;20.77;;;0.60;97.90;;;;;;5054641;28;20668;-45
2022/03/03 06:03:22;;;;;;;28.65;19.67;;;0.80;98.50;;;;;;5054833;28;20709;-43
2022/03/03 06:05:53;;;;;;;27.13;19.85;;;;;;;;;;5054679;28;20549;-45
2022/03/03 06:08:23;;;;;;;28.27;19.45;;;;;;;;;;5054603;28;20663;-45
2022/03/03 06:10:52;;;;;;;27.08;19.60;;;;;;;;;;5054561;28;20220;-45
2022/03/03 06:13:22;;;;;;;31.73;20.77;;;0.80;99.40;;;;;;5054455;28;20259;-45
2022/03/03 06:15:49;;;;;;;33.65;19.65;;;;;;;;;;5054255;28;20333;-45
2022/03/03 06:18:16;;;;;;;34.85;23.00;;;0.70;99.90;;;;;;5054414;28;20202;-45
2022/03/03 06:20:45;;;;;;;33.85;23.48;;;0.60;99.90;;;;;;5053905;28;20280;-45
2022/03/03 06:23:14;;;;;;;32.63;22.13;;;0.90;99.90;;;;;;5054305;28;20220;-45
2022/03/03 06:25:41;;;;;;;36.28;23.20;;;;;;;;;;5054306;28;20202;-45
2022/03/03 06:28:09;;;;;;;38.53;22.98;;;0.60;99.90;;;;;;5053826;28;20283;-44
2022/03/03 06:30:36;;;;;;;35.78;23.70;;;0.60;99.90;;;;;;5053676;28;20701;-46
2022/03/03 06:33:04;;;;;;;34.05;22.10;;;0.80;99.90;;;;;;5054381;28;20616;-44
2022/03/03 06:35:35;;;;;;;37.10;22.58;;;;;;;;;;5053881;28;20207;-44
2022/03/03 06:38:04;;;;;;;35.63;22.70;;;0.80;99.90;;;;;;5053822;28;20341;-45
2022/03/03 06:40:32;;;;;;;38.17;22.40;;;0.60;99.90;;;;;;5053789;28;20213;-44
2022/03/03 06:43:00;;;;;;;34.40;21.17;;;0.70;99.90;;;;;;5053559;28;20227;-44
2022/03/03 06:45:28;;;;;;;34.70;22.83;;;;;;;;;;5053442;28;20188;-45
2022/03/03 06:47:54;;;;;;;32.05;21.58;;;0.40;99.90;;;;;;5053848;28;20190;-45
2022/03/03 06:50:22;;;;;;;32.00;22.58;;;0.40;99.90;;;;;;5053865;28;20196;-44
2022/03/03 06:52:50;;;;;;;35.30;22.30;;;0.70;99.90;;;;;;5054079;28;20221;-45
2022/03/03 06:55:20;;;;;;;37.15;23.83;;;0.40;99.90;;;;;;5053634;28;20198;-45
2022/03/03 06:57:51;;;;;;;36.65;24.02;;;0.50;99.90;;;;;;5053618;28;20326;-45
2022/03/03 07:00:20;;;;;;;33.15;22.67;;;0.90;99.90;;;;;;5051802;28;20289;-45
2022/03/03 07:02:47;;;;;;;43.20;26.52;;;0.70;99.90;;;;;;5053211;28;20224;-47
2022/03/03 07:05:14;;;;;;;47.45;25.52;;;0.60;99.90;;;;;;5053090;28;20317;-45
2022/03/03 07:07:42;;;;;;;43.70;27.38;;;0.40;99.90;;;;;;5053705;28;20210;-44
2022/03/03 07:10:09;;;;;;;47.40;28.85;;;0.40;99.90;;;;;;5053118;28;20198;-45
2022/03/03 07:12:36;;;;;;;52.03;30.10;;;0.50;99.90;;;;;;5053182;28;20715;-46
2022/03/03 07:15:05;;;;;;;62.60;29.73;;;0.40;99.90;;;;;;5053174;28;20217;-44
2022/03/03 07:17:42;;;;;;;54.47;30.10;;;0.50;99.90;;;;;;5053099;28;20225;-45
2022/03/03 07:20:14;;;;;;;58.67;29.90;;;0.10;99.90;;;;;;5053481;28;20199;-44
2022/03/03 07:22:54;;;;;;;66.00;30.02;;;0.10;99.90;;;;;;5053974;28;20228;-45
2022/03/03 07:25:27;;;;;;;65.15;32.75;;;0.20;99.90;;;;;;5053518;28;20204;-45
2022/03/03 07:31:51;;;;;;;56.47;30.50;;;0.30;99.90;;;;;;5053490;28;20209;-45
2022/03/03 07:34:27;;;;;;;78.88;30.48;;;-0.20;99.90;;;;;;5052964;28;20204;-45
2022/03/03 07:36:57;;;;;;;53.58;29.83;;;0.20;99.90;;;;;;5052821;28;20221;-45
2022/03/03 07:39:30;;;;;;;60.58;31.48;;;0.10;99.90;;;;;;5052895;28;20197;-46
2022/03/03 07:41:58;;;;;;;57.10;29.38;;;0.40;99.90;;;;;;5033171;28;20253;-44
2022/03/03 07:44:25;;;;;;;72.05;33.15;;;;;;;;;;5032812;28;20227;-45
2022/03/03 07:46:53;;;;;;;57.17;31.25;;;0.40;99.90;;;;;;5032564;28;20673;-46
2022/03/03 07:49:21;;;;;;;57.28;33.30;;;0.70;99.90;;;;;;5032436;28;20551;-46
2022/03/03 07:51:48;;;;;;;63.38;31.40;;;0.50;99.90;;;;;;5032951;28;20740;-46
2022/03/03 07:54:15;;;;;;;61.38;33.60;;;0.40;99.90;;;;;;5032597;28;20589;-45
2022/03/03 07:56:48;;;;;;;54.58;29.65;;;0.70;99.90;;;;;;5032580;28;20669;-45
2022/03/03 07:59:18;;;;;;;57.83;29.23;;;0.50;99.90;;;;;;5032769;28;20284;-45
2022/03/03 08:01:46;;;;;;;54.42;28.77;;;0.70;99.90;;;;;;5032262;28;20242;-45
2022/03/03 08:04:16;;;;;;;62.53;31.20;;;0.70;99.90;;;;;;5032551;28;20205;-45
2022/03/03 08:06:48;;;;;;;60.67;29.70;;;0.80;99.90;;;;;;5032441;28;20768;-45
2022/03/03 08:09:16;;;;;;;61.58;30.80;;;1.00;99.90;;;;;;5013968;28;20204;-45
2022/03/03 08:11:43;;;;;;;54.97;29.25;;;0.90;99.90;;;;;;5031875;28;20218;-45
2022/03/03 08:14:11;;;;;;;56.80;30.98;;;1.00;99.90;;;;;;5032104;28;20247;-44
2022/03/03 08:16:40;;;;;;;53.90;30.02;;;0.90;99.90;;;;;;5044226;28;20394;-44
2022/03/03 08:19:07;;;;;;;60.38;30.60;;;;;;;;;;5051771;28;20213;-44
2022/03/03 08:21:36;;;;;;;61.22;28.80;;;0.70;99.90;;;;;;5052627;28;20234;-44
2022/03/03 08:24:04;;;;;;;48.20;27.27;;;1.10;99.90;;;;;;5052850;28;20203;-46
2022/03/03 08:26:31;;;;;;;51.65;26.38;;;0.80;99.90;;;;;;5052027;28;20198;-45
2022/03/03 08:28:57;;;;;;;53.33;28.75;;;1.00;99.90;;;;;;5051382;28;20649;-45
2022/03/03 08:31:29;;;;;;;50.05;28.05;;;1.00;99.90;;;;;;5052267;28;20205;-46
2022/03/03 08:34:02;;;;;;;50.67;26.83;;;1.00;99.90;;;;;;5052506;28;20253;-47
2022/03/03 08:36:34;;;;;;;51.83;29.70;;;1.20;99.90;;;;;;5052125;28;20608;-44
2022/03/03 08:39:06;;;;;;;48.40;27.38;;;1.10;99.90;;;;;;5033276;28;20632;-46
2022/03/03 08:41:36;;;;;;;49.63;27.38;;;1.00;99.90;;;;;;5051389;28;20208;-45
2022/03/03 08:44:05;;;;;;;49.78;27.88;;;0.90;99.90;;;;;;5051572;28;20198;-45
2022/03/03 08:46:35;;;;;;;55.70;29.75;;;1.10;99.90;;;;;;5051649;28;20196;-46
2022/03/03 08:49:04;;;;;;;55.05;28.85;;;1.20;99.90;;;;;;5051153;28;20698;-44
2022/03/03 08:51:31;;;;;;;54.83;29.77;;;1.30;99.90;;;;;;5051394;28;20200;-48
2022/03/03 08:53:58;;;;;;;45.90;26.42;;;1.20;99.90;;;;;;5051050;28;20257;-47
2022/03/03 08:56:26;;;;;;;48.55;28.17;;;1.30;99.90;;;;;;5051361;28;20206;-45
2022/03/03 08:58:54;;;;;;;55.13;29.33;;;1.40;99.90;;;;;;5051199;28;20198;-46
2022/03/03 09:01:22;;;;;;;46.90;25.08;;;1.20;99.90;;;;;;5051391;28;20204;-45
2022/03/03 09:03:49;;;;;;;44.00;26.27;;;1.20;99.90;;;;;;5051392;28;20206;-45
2022/03/03 09:06:16;;;;;;;45.08;25.50;;;0.90;99.90;;;;;;5051726;28;20667;-45
2022/03/03 09:08:44;;;;;;;41.83;25.08;;;1.40;99.90;;;;;;5050399;28;20541;-45
2022/03/03 09:11:10;;;;;;;42.03;25.58;;;1.20;99.90;;;;;;5051760;28;20211;-45
2022/03/03 09:13:38;;;;;;;45.45;24.42;;;1.60;99.90;;;;;;5052499;28;20620;-46
2022/03/03 09:16:06;;;;;;;36.25;23.15;;;;;;;;;;5051666;28;20207;-46
2022/03/03 09:18:33;;;;;;;43.95;22.75;;;1.40;99.90;;;;;;5051276;28;20226;-45
2022/03/03 09:21:00;;;;;;;37.38;23.25;;;1.60;99.90;;;;;;5050704;28;20243;-45
2022/03/03 09:23:27;;;;;;;42.90;24.05;;;1.50;99.90;;;;;;5054603;28;20219;-45
2022/03/03 09:25:54;;;;;;;43.90;25.38;;;1.80;99.90;;;;;;5055410;28;20241;-47
2022/03/03 09:28:20;;;;;;;40.63;23.30;;;1.70;99.90;;;;;;5055347;28;20199;-45
2022/03/03 09:30:49;;;;;;;37.50;21.05;;;1.70;99.90;;;;;;5054946;28;20246;-44
2022/03/03 09:33:16;;;;;;;32.65;21.17;;;1.80;99.90;;;;;;5055358;28;20217;-45
2022/03/03 09:35:43;;;;;;;34.65;20.30;;;;;;;;;;5055177;28;20192;-45
2022/03/03 09:38:09;;;;;;;35.10;20.63;;;1.80;99.90;;;;;;5055207;28;20211;-45
2022/03/03 09:40:36;;;;;;;29.00;17.42;;;1.90;99.90;;;;;;5054578;28;20196;-46
2022/03/03 09:43:04;;;;;;;29.95;19.90;;;;;;;;;;5054953;28;20219;-45
2022/03/03 09:45:32;;;;;;;32.75;19.15;;;;;;;;;;5055270;28;20278;-45
2022/03/03 09:48:03;;;;;;;35.05;19.85;;;1.90;99.90;;;;;;5055003;28;20195;-45
2022/03/03 09:50:31;;;;;;;31.48;19.38;;;2.10;99.90;;;;;;5054968;28;20210;-45
2022/03/03 09:52:58;;;;;;;31.95;18.27;;;;;;;;;;5054737;28;20251;-46
2022/03/03 09:55:26;;;;;;;27.90;16.30;;;2.20;99.90;;;;;;5054773;28;20656;-45
2022/03/03 09:57:52;;;;;;;25.70;14.75;;;2.10;99.90;;;;;;5054835;28;20596;-46
2022/03/03 10:00:19;;;;;;;30.55;16.63;;;2.10;99.90;;;;;;5054657;28;20274;-45
2022/03/03 10:03:00;;;;;;;30.17;15.32;;;2.30;99.90;;;;;;5055013;28;20236;-45
2022/03/03 10:05:36;;;;;;;28.90;16.27;;;2.50;99.90;;;;;;5054793;28;20732;-46
2022/03/03 10:08:07;;;;;;;28.35;15.52;;;;;;;;;;5054357;28;20203;-45
2022/03/03 10:10:35;;;;;;;26.00;15.38;;;2.50;99.90;;;;;;5054315;28;20660;-46
2022/03/03 10:13:02;;;;;;;28.05;15.43;;;2.50;99.90;;;;;;5054445;28;20264;-44
2022/03/03 10:15:30;;;;;;;28.02;14.68;;;2.30;99.90;;;;;;5054388;28;20208;-44
2022/03/03 10:18:00;;;;;;;26.05;14.40;;;2.30;99.90;;;;;;5054347;28;20220;-45
2022/03/03 10:20:28;;;;;;;23.63;12.52;;;2.30;99.90;;;;;;5053910;28;20188;-45
2022/03/03 10:22:58;;;;;;;26.17;13.60;;;2.50;99.90;;;;;;5054255;28;20220;-45
2022/03/03 10:25:30;;;;;;;22.40;13.35;;;2.30;99.90;;;;;;5054411;28;20200;-45
2022/03/03 10:27:57;;;;;;;24.52;13.07;;;2.30;99.90;;;;;;5053897;28;20673;-45
2022/03/03 10:30:23;;;;;;;24.40;13.07;;;2.40;99.90;;;;;;5053835;28;20208;-44
2022/03/03 10:32:50;;;;;;;25.67;13.07;;;2.60;99.90;;;;;;5054316;28;20216;-45
2022/03/03 10:35:19;;;;;;;20.38;11.68;;;2.60;99.90;;;;;;5053748;28;20546;-45
2022/03/03 10:37:47;;;;;;;23.55;13.18;;;2.20;99.90;;;;;;5053929;28;20212;-46
2022/03/03 10:40:15;;;;;;;20.52;11.75;;;2.50;99.90;;;;;;5053716;28;20192;-44
2022/03/03 10:42:44;;;;;;;22.65;12.55;;;2.70;99.90;;;;;;5053684;28;20535;-44
2022/03/03 10:45:15;;;;;;;23.48;12.40;;;2.60;99.90;;;;;;5053947;28;20200;-45
2022/03/03 10:47:45;;;;;;;25.95;11.75;;;2.50;99.90;;;;;;5053738;28;20819;-46
2022/03/03 10:50:12;;;;;;;23.42;13.50;;;;;;;;;;5053494;28;20200;-45
2022/03/03 10:52:41;;;;;;;25.95;12.85;;;2.60;99.90;;;;;;5053760;28;20302;-45
2022/03/03 10:55:13;;;;;;;24.25;13.48;;;2.60;99.90;;;;;;5053589;28;20202;-45
2022/03/03 10:57:42;;;;;;;23.45;13.98;;;2.90;99.90;;;;;;5053938;28;20227;-45
2022/03/03 11:00:11;;;;;;;22.85;12.82;;;;;;;;;;5053606;28;20207;-45
2022/03/03 11:02:39;;;;;;;24.58;12.43;;;3.00;99.90;;;;;;5075796;22;20310;-52
2022/03/03 11:05:09;;;;;;;23.73;12.95;;;;;;;;;;5072806;28;20383;-51
2022/03/03 11:07:36;;;;;;;25.90;12.40;;;3.00;99.90;;;;;;5072534;28;20249;-51
2022/03/03 11:10:06;;;;;;;22.83;12.52;;;3.00;99.90;;;;;;5071015;28;20207;-51
2022/03/03 11:12:33;;;;;;;24.35;14.07;;;2.90;99.90;;;;;;5072529;28;20703;-51
2022/03/03 11:15:00;;;;;;;24.23;11.95;;;2.80;99.90;;;;;;5072859;28;20202;-53
2022/03/03 11:17:27;;;;;;;23.30;12.38;;;2.90;99.90;;;;;;5072912;28;20222;-52
2022/03/03 11:19:58;;;;;;;22.40;12.43;;;2.90;99.90;;;;;;5072153;28;20640;-53
2022/03/03 11:22:26;;;;;;;28.08;14.95;;;3.00;99.90;;;;;;5072609;28;20261;-53
2022/03/03 11:24:56;;;;;;;25.60;12.55;;;2.90;99.90;;;;;;5072186;28;20195;-53
2022/03/03 11:27:32;;;;;;;21.75;11.35;;;3.10;99.90;;;;;;5072277;28;20198;-54
2022/03/03 11:30:19;;;;;;;18.08;10.80;;;;;;;;;;5072260;28;20192;-54
2022/03/03 11:32:47;;;;;;;21.13;12.68;;;3.20;99.90;;;;;;5072099;28;20225;-50
2022/03/03 11:35:15;;;;;;;19.33;10.88;;;;;;;;;;5072280;28;20197;-50
2022/03/03 11:37:43;;;;;;;19.02;11.52;;;;;;;;;;5071968;28;20226;-56
2022/03/03 11:40:12;;;;;;;17.30;11.07;;;;;;;;;;5071475;28;20210;-52
2022/03/03 11:42:47;;;;;;;24.05;12.05;;;3.20;99.90;;;;;;5071800;28;20354;-52
2022/03/03 11:45:31;;;;;;;18.98;10.40;;;3.20;99.90;;;;;;5071363;28;20199;-51
2022/03/03 11:48:09;;;;;;;16.80;9.15;;;;;;;;;;5071936;28;20621;-52
2022/03/03 11:50:36;;;;;;;16.15;9.32;;;3.30;99.90;;;;;;5071574;28;20187;-51
2022/03/03 11:53:25;;;;;;;20.88;10.82;;;3.50;99.90;;;;;;5071654;28;20218;-53
2022/03/03 11:55:58;;;;;;;13.55;8.98;;;3.30;99.90;;;;;;5071812;28;20234;-52
2022/03/03 11:58:32;;;;;;;24.08;10.80;;;3.20;99.90;;;;;;5071289;28;20319;-53
2022/03/03 12:01:11;;;;;;;17.15;11.13;;;3.30;99.90;;;;;;5071638;28;20209;-52
2022/03/03 12:04:03;;;;;;;18.60;10.68;;;3.20;99.90;;;;;;5071324;28;20222;-52
2022/03/03 12:06:37;;;;;;;20.25;11.20;;;3.40;99.90;;;;;;5071662;28;20191;-51
2022/03/03 12:09:17;;;;;;;20.35;11.05;;;3.40;99.90;;;;;;5071414;28;20211;-51
2022/03/03 12:11:44;;;;;;;19.42;10.80;;;;;;;;;;5071270;28;20210;-53
2022/03/03 12:14:33;;;;;;;14.25;9.68;;;3.20;99.90;;;;;;5071856;28;20195;-52
2022/03/03 12:17:24;;;;;;;19.58;11.18;;;;;;;;;;5071968;28;20234;-51
2022/03/03 12:19:51;;;;;;;15.02;9.82;;;;;;;;;;5051510;28;20211;-52
2022/03/03 12:22:25;;;;;;;16.08;9.60;;;3.60;99.90;;;;;;5071118;28;20235;-51
2022/03/03 12:24:52;;;;;;;15.65;8.77;;;;;;;;;;5071636;28;20199;-52
2022/03/03 12:27:19;;;;;;;20.63;12.45;;;3.70;99.90;;;;;;5070837;28;20192;-53
2022/03/03 12:30:00;;;;;;;20.00;11.52;;;;;;;;;;5070887;28;20195;-52
2022/03/03 12:32:36;;;;;;;19.40;12.00;;;3.40;99.90;;;;;;5071447;28;20217;-53
2022/03/03 12:35:05;;;;;;;21.08;11.85;;;3.70;99.90;;;;;;5071624;28;20454;-52
2022/03/03 12:37:33;;;;;;;19.08;10.63;;;;;;;;;;5071122;28;20211;-54
2022/03/03 12:40:03;;;;;;;16.60;9.73;;;3.40;99.90;;;;;;5070592;28;20213;-52
2022/03/03 12:42:31;;;;;;;17.58;10.88;;;;;;;;;;5071013;28;20251;-51
2022/03/03 12:45:01;;;;;;;18.10;10.27;;;3.60;99.90;;;;;;5070213;28;20207;-53
2022/03/03 12:47:33;;;;;;;21.58;9.93;;;3.90;99.90;;;;;;5067872;28;20199;-52
2022/03/03 12:50:04;;;;;;;15.63;10.00;;;;;;;;;;5070600;28;20279;-52
2022/03/03 12:52:32;;;;;;;20.23;11.63;;;;;;;;;;5070925;28;20301;-51
2022/03/03 12:54:59;;;;;;;24.80;12.43;;;;;;;;;;5071314;28;20203;-52
2022/03/03 12:57:31;;;;;;;16.92;10.88;;;3.70;99.90;;;;;;5072718;28;20201;-52
2022/03/03 13:00:00;;;;;;;17.85;11.25;;;;;;;;;;5074668;28;20226;-52
2022/03/03 13:02:27;;;;;;;19.00;10.35;;;;;;;;;;5074994;28;20726;-52
2022/03/03 13:04:54;;;;;;;18.35;11.52;;;3.90;99.90;;;;;;5074768;28;20567;-52
2022/03/03 13:07:22;;;;;;;21.35;12.07;;;4.00;99.90;;;;;;5074926;28;20206;-52
2022/03/03 13:09:55;;;;;;;18.00;10.88;;;;;;;;;;5075084;28;20187;-52